createdAt,value
2018-07-02T00:01:06.572Z,148501.83
2018-07-02T00:03:37.724Z,148503.06
2018-07-02T00:06:33.962Z,148513.06
2018-07-02T00:09:05.724Z,148494.36
2018-07-02T00:11:37.390Z,148504.36
2018-07-02T00:14:08.506Z,148526.75
2018-07-02T00:16:39.738Z,148525.52
2018-07-02T00:19:11.002Z,148557.92
2018-07-02T00:21:42.047Z,148574.09
2018-07-02T00:24:13.368Z,148565.38
2018-07-02T00:26:44.475Z,148586.58
2018-07-02T00:29:15.814Z,148585.34
2018-07-02T00:31:47.091Z,148591.56
2018-07-02T00:34:18.404Z,148599.03
2018-07-02T00:36:49.633Z,148597.78
2018-07-02T00:39:20.943Z,148602.77
2018-07-02T00:41:51.979Z,148613.97
2018-07-02T00:44:23.384Z,148602.77
2018-07-02T00:46:55.733Z,148617.69
2018-07-02T00:49:26.880Z,148613.97
2018-07-02T00:51:57.967Z,148605.25
2018-07-02T00:57:29.687Z,148576.58
2018-07-02T01:00:12.163Z,148587.83
2018-07-02T01:02:43.337Z,148592.81
2018-07-02T01:05:14.607Z,148594.05
2018-07-02T01:07:46.246Z,148611.47
2018-07-02T01:10:17.566Z,148608.98
2018-07-02T01:12:48.645Z,148575.34
2018-07-02T01:15:19.962Z,148555.42
2018-07-02T01:17:51.108Z,148536.77
2018-07-02T01:20:22.070Z,148500.58
2018-07-02T01:22:53.474Z,148481.88
2018-07-02T01:25:24.552Z,148484.36
2018-07-02T01:27:55.857Z,148495.61
2018-07-02T01:30:26.821Z,148518.05
2018-07-02T01:32:58.020Z,148510.58
2018-07-02T01:35:30.316Z,148524.27
2018-07-02T01:38:02.480Z,148538.00
2018-07-02T01:40:34.396Z,148560.41
2018-07-02T01:43:05.694Z,148569.11
2018-07-02T01:45:37.079Z,148572.84
2018-07-02T01:48:08.549Z,148582.81
2018-07-02T01:50:39.960Z,148571.61
2018-07-02T01:53:11.121Z,148580.31
2018-07-02T01:55:42.343Z,148579.06
2018-07-02T01:58:13.740Z,148577.83
2018-07-02T02:00:45.019Z,148574.09
2018-07-02T02:03:16.144Z,148544.22
2018-07-02T02:05:47.224Z,148535.47
2018-07-02T02:08:18.454Z,148521.78
2018-07-02T02:10:49.748Z,148518.05
2018-07-02T02:13:20.904Z,148479.38
2018-07-02T02:15:51.918Z,148420.88
2018-07-02T02:18:22.970Z,148425.84
2018-07-02T02:20:55.942Z,148424.59
2018-07-02T02:23:27.220Z,148452.02
2018-07-02T02:25:58.453Z,148437.03
2018-07-02T02:28:29.730Z,148428.33
2018-07-02T02:31:01.108Z,148439.53
2018-07-02T02:33:32.592Z,148444.55
2018-07-02T02:36:03.732Z,148388.48
2018-07-02T02:38:34.791Z,148410.91
2018-07-02T02:41:05.926Z,148378.53
2018-07-02T02:43:37.078Z,148376.03
2018-07-02T02:46:08.511Z,148387.23
2018-07-02T02:48:39.493Z,148397.23
2018-07-02T02:51:10.917Z,148410.91
2018-07-02T02:53:42.034Z,148453.25
2018-07-02T02:56:13.411Z,148476.89
2018-07-02T02:58:44.722Z,148460.72
2018-07-02T03:01:16.020Z,148496.84
2018-07-02T03:03:46.922Z,148526.75
2018-07-02T03:06:18.061Z,148570.36
2018-07-02T03:08:49.161Z,148683.77
2018-07-02T03:11:20.061Z,148772.25
2018-07-02T03:13:51.412Z,148823.41
2018-07-02T03:16:22.788Z,148895.69
2018-07-02T03:18:53.944Z,148864.50
2018-07-02T03:21:25.260Z,148882.00
2018-07-02T03:23:56.447Z,148943.13
2018-07-02T03:26:27.360Z,149002.97
2018-07-02T03:28:58.536Z,149074.09
2018-07-02T03:31:29.780Z,149064.13
2018-07-02T03:34:00.969Z,148986.78
2018-07-02T03:36:32.176Z,148976.81
2018-07-02T03:39:03.278Z,149001.73
2018-07-02T03:41:34.313Z,149025.45
2018-07-02T03:44:05.404Z,149020.47
2018-07-02T03:46:36.638Z,148991.77
2018-07-02T03:49:07.864Z,149011.75
2018-07-02T03:51:38.831Z,148994.25
2018-07-02T03:54:09.760Z,148935.66
2018-07-02T03:56:40.876Z,148874.52
2018-07-02T03:59:12.522Z,148815.89
2018-07-02T04:01:44.624Z,148852.06
2018-07-02T04:04:15.799Z,148891.95
2018-07-02T04:06:47.322Z,148899.44
2018-07-02T04:09:18.622Z,148877.02
2018-07-02T04:11:49.820Z,148864.50
2018-07-02T04:14:21.819Z,148869.53
2018-07-02T04:16:53.132Z,148832.12
2018-07-02T04:19:24.456Z,148823.41
2018-07-02T04:21:55.801Z,148827.16
2018-07-02T04:24:26.851Z,148854.55
2018-07-02T04:26:58.117Z,148882.00
2018-07-02T04:29:29.466Z,148833.38
2018-07-02T04:32:00.762Z,148844.58
2018-07-02T04:34:31.912Z,148847.06
2018-07-02T04:37:02.803Z,148878.25
2018-07-02T04:39:33.744Z,148939.39
2018-07-02T04:42:04.772Z,148948.11
2018-07-02T04:44:35.787Z,148959.31
2018-07-02T04:47:06.818Z,148991.77
2018-07-02T04:49:37.795Z,149009.25
2018-07-02T04:52:08.882Z,149061.64
2018-07-02T04:54:39.856Z,149129.03
2018-07-02T04:57:11.007Z,149250.09
2018-07-02T04:59:42.002Z,149353.75
2018-07-02T05:02:13.018Z,149366.22
2018-07-02T05:04:45.055Z,149491.11
2018-07-02T05:07:16.166Z,149622.28
2018-07-02T05:09:47.151Z,149553.59
2018-07-02T05:12:17.950Z,149776.06
2018-07-02T05:14:48.881Z,149878.61
2018-07-02T05:17:20.221Z,149669.81
2018-07-02T05:19:51.446Z,149696.06
2018-07-02T05:22:22.673Z,149529.88
2018-07-02T05:24:53.706Z,149584.84
2018-07-02T05:27:24.685Z,150137.53
2018-07-02T05:29:56.032Z,150225.17
2018-07-02T05:32:27.298Z,150404.20
2018-07-02T05:34:58.563Z,150772.56
2018-07-02T05:37:29.672Z,150697.36
2018-07-02T05:40:01.281Z,150657.25
2018-07-02T05:42:32.465Z,150434.28
2018-07-02T05:45:03.979Z,150233.91
2018-07-02T05:47:35.177Z,150364.14
2018-07-02T05:50:06.518Z,150980.70
2018-07-02T05:52:37.559Z,151492.69
2018-07-02T05:55:08.659Z,152020.41
2018-07-02T05:57:39.857Z,152538.75
2018-07-02T06:00:11.223Z,152834.63
2018-07-02T06:02:42.576Z,153229.03
2018-07-02T06:05:13.818Z,153334.92
2018-07-02T06:07:45.059Z,153352.59
2018-07-02T06:10:16.317Z,153212.66
2018-07-02T06:12:47.262Z,153389.16
2018-07-02T06:15:18.503Z,153624.97
2018-07-02T06:17:50.537Z,153384.08
2018-07-02T06:20:21.782Z,152777.98
2018-07-02T06:22:54.683Z,153203.81
2018-07-02T06:25:25.942Z,153520.28
2018-07-02T06:27:57.195Z,153334.92
2018-07-02T06:30:28.437Z,153570.75
2018-07-02T06:32:59.611Z,153703.22
2018-07-02T06:35:30.735Z,153794.09
2018-07-02T06:38:01.741Z,153794.09
2018-07-02T06:40:32.901Z,153791.56
2018-07-02T06:43:04.143Z,153804.17
2018-07-02T06:45:35.084Z,153753.72
2018-07-02T06:48:06.418Z,153780.22
2018-07-02T06:50:37.539Z,153361.41
2018-07-02T06:53:08.785Z,153630.06
2018-07-02T06:55:39.753Z,153517.75
2018-07-02T06:58:10.816Z,153724.69
2018-07-02T07:00:42.085Z,153757.50
2018-07-02T07:03:12.960Z,153498.86
2018-07-02T07:05:43.888Z,153662.86
2018-07-02T07:08:15.219Z,154008.69
2018-07-02T07:10:46.472Z,154021.30
2018-07-02T07:13:17.899Z,153905.14
2018-07-02T07:15:48.983Z,153437.11
2018-07-02T07:18:20.180Z,153055.11
2018-07-02T07:20:52.089Z,152679.75
2018-07-02T07:23:23.167Z,153232.81
2018-07-02T07:25:54.528Z,152956.83
2018-07-02T07:28:25.646Z,152546.30
2018-07-02T07:30:56.861Z,152878.73
2018-07-02T07:33:28.336Z,152409.11
2018-07-02T07:35:59.336Z,152688.55
2018-07-02T07:38:30.719Z,152942.94
2018-07-02T07:41:03.095Z,152582.80
2018-07-02T07:43:34.065Z,152612.97
2018-07-02T07:46:05.637Z,152490.91
2018-07-02T07:48:37.448Z,152299.66
2018-07-02T07:51:09.487Z,152427.97
2018-07-02T07:53:40.606Z,152391.47
2018-07-02T07:56:11.673Z,152058.19
2018-07-02T07:58:42.648Z,152214.09
2018-07-02T08:01:14.725Z,152115.98
2018-07-02T08:03:46.084Z,152011.62
2018-07-02T08:06:17.531Z,152017.91
2018-07-02T08:08:48.984Z,151855.73
2018-07-02T08:11:21.541Z,151981.45
2018-07-02T08:13:53.129Z,152103.44
2018-07-02T08:16:26.115Z,151791.69
2018-07-02T08:18:57.604Z,151591.91
2018-07-02T08:21:28.748Z,151313.17
2018-07-02T08:24:00.216Z,151107.41
2018-07-02T08:26:31.493Z,150959.41
2018-07-02T08:29:02.789Z,150827.73
2018-07-02T08:31:33.957Z,150747.47
2018-07-02T08:34:05.046Z,150663.52
2018-07-02T08:36:35.954Z,150531.98
2018-07-02T08:39:11.303Z,150380.39
2018-07-02T08:41:42.799Z,150379.16
2018-07-02T08:44:13.867Z,150335.28
2018-07-02T08:46:45.209Z,150326.53
2018-07-02T08:49:16.399Z,150361.64
2018-07-02T08:51:47.547Z,150394.20
2018-07-02T08:54:18.802Z,150425.47
2018-07-02T08:56:50.830Z,150406.72
2018-07-02T08:59:22.091Z,150433.03
2018-07-02T09:01:54.122Z,150463.05
2018-07-02T09:04:25.275Z,150420.47
2018-07-02T09:06:56.652Z,150411.72
2018-07-02T09:09:27.823Z,150401.70
2018-07-02T09:11:58.881Z,150397.95
2018-07-02T09:14:29.934Z,150416.72
2018-07-02T09:17:01.339Z,150400.45
2018-07-02T09:19:32.940Z,150339.13
2018-07-02T09:22:04.136Z,150336.63
2018-07-02T09:24:36.311Z,150420.47
2018-07-02T09:27:07.469Z,150424.22
2018-07-02T09:29:38.666Z,150421.72
2018-07-02T09:32:09.689Z,150433.03
2018-07-02T09:34:41.494Z,150431.78
2018-07-02T09:37:12.711Z,150431.78
2018-07-02T09:39:43.848Z,150474.30
2018-07-02T09:42:15.352Z,150466.80
2018-07-02T09:44:46.753Z,150435.53
2018-07-02T09:47:17.696Z,150469.30
2018-07-02T09:49:48.910Z,150484.36
2018-07-02T09:52:20.302Z,150455.53
2018-07-02T09:54:51.444Z,150474.30
2018-07-02T09:57:23.196Z,150496.91
2018-07-02T09:59:54.450Z,150464.30
2018-07-02T10:02:25.847Z,150449.28
2018-07-02T10:04:57.128Z,150476.80
2018-07-02T10:07:28.402Z,150449.28
2018-07-02T10:10:00.566Z,150481.86
2018-07-02T10:12:32.802Z,150475.55
2018-07-02T10:15:04.176Z,150453.03
2018-07-02T10:17:35.436Z,150489.36
2018-07-02T10:20:07.369Z,150493.16
2018-07-02T10:22:38.656Z,150468.05
2018-07-02T10:25:09.937Z,150468.05
2018-07-02T10:27:41.027Z,150449.28
2018-07-02T10:30:12.182Z,150486.86
2018-07-02T10:32:43.403Z,150425.47
2018-07-02T10:35:14.364Z,150451.78
2018-07-02T10:37:45.632Z,150489.36
2018-07-02T10:40:16.766Z,150543.25
2018-07-02T10:42:48.491Z,150544.50
2018-07-02T10:45:19.584Z,150552.00
2018-07-02T10:47:50.689Z,150602.09
2018-07-02T10:50:21.848Z,150597.09
2018-07-02T10:52:53.928Z,150646.00
2018-07-02T10:55:25.225Z,150640.94
2018-07-02T10:57:56.558Z,150637.19
2018-07-02T11:00:27.885Z,150619.63
2018-07-02T11:02:58.915Z,150612.11
2018-07-02T11:05:30.099Z,150648.50
2018-07-02T11:08:01.237Z,150624.67
2018-07-02T11:10:33.138Z,150729.95
2018-07-02T11:13:09.232Z,150714.87
2018-07-02T11:15:41.798Z,150696.11
2018-07-02T11:18:14.244Z,150724.94
2018-07-02T11:20:45.714Z,150687.34
2018-07-02T11:23:16.957Z,150666.02
2018-07-02T11:25:47.997Z,150617.13
2018-07-02T11:28:19.264Z,150637.19
2018-07-02T11:30:50.562Z,150624.67
2018-07-02T11:33:21.666Z,150634.69
2018-07-02T11:35:52.761Z,150620.88
2018-07-02T11:38:23.917Z,150624.67
2018-07-02T11:40:54.937Z,150648.50
2018-07-02T11:43:26.059Z,150639.69
2018-07-02T11:45:57.160Z,150672.33
2018-07-02T11:48:28.138Z,150691.09
2018-07-02T11:51:02.426Z,150692.34
2018-07-02T11:53:34.557Z,150763.80
2018-07-02T11:56:05.749Z,150707.38
2018-07-02T11:58:37.753Z,150723.69
2018-07-02T12:01:08.914Z,150703.63
2018-07-02T12:03:40.887Z,150744.97
2018-07-02T12:06:11.851Z,150717.44
2018-07-02T12:08:44.370Z,150701.11
2018-07-02T12:11:15.597Z,150731.20
2018-07-02T12:13:46.938Z,150693.59
2018-07-02T12:16:17.966Z,150676.08
2018-07-02T12:18:49.325Z,150638.44
2018-07-02T12:21:20.498Z,150659.77
2018-07-02T12:23:51.888Z,150647.25
2018-07-02T12:26:23.115Z,150638.44
2018-07-02T12:28:54.461Z,150569.53
2018-07-02T12:31:25.475Z,150529.48
2018-07-02T12:33:57.558Z,150476.80
2018-07-02T12:36:30.060Z,150542.00
2018-07-02T12:39:01.074Z,150564.52
2018-07-02T12:41:31.995Z,150547.00
2018-07-02T12:44:03.051Z,150521.94
2018-07-02T12:46:37.067Z,150468.05
2018-07-02T12:49:08.114Z,150514.42
2018-07-02T12:51:39.170Z,150549.50
2018-07-02T12:54:11.463Z,150443.03
2018-07-02T12:56:42.906Z,150407.95
2018-07-02T12:59:14.284Z,150473.05
2018-07-02T13:01:45.485Z,150465.55
2018-07-02T13:04:16.636Z,150484.36
2018-07-02T13:06:47.913Z,150479.34
2018-07-02T13:09:20.207Z,150468.05
2018-07-02T13:11:51.504Z,150459.28
2018-07-02T13:14:22.796Z,150481.86
2018-07-02T13:16:53.825Z,150471.80
2018-07-02T13:19:24.573Z,150483.09
2018-07-02T13:21:55.762Z,150448.03
2018-07-02T13:24:26.884Z,150387.95
2018-07-02T13:26:58.034Z,150319.03
2018-07-02T13:29:29.343Z,150321.53
2018-07-02T13:32:00.342Z,150280.22
2018-07-02T13:34:31.477Z,150302.78
2018-07-02T13:37:02.613Z,150283.97
2018-07-02T13:39:33.767Z,150251.47
2018-07-02T13:42:04.927Z,150238.91
2018-07-02T13:44:36.061Z,150242.72
2018-07-02T13:47:07.370Z,150258.97
2018-07-02T13:49:39.363Z,150213.91
2018-07-02T13:52:10.364Z,150213.91
2018-07-02T13:54:41.689Z,150192.63
2018-07-02T13:57:12.855Z,150155.06
2018-07-02T13:59:44.045Z,150120.03
2018-07-02T14:02:15.131Z,150083.73
2018-07-02T14:04:46.289Z,150057.50
2018-07-02T14:07:17.234Z,150014.97
2018-07-02T14:09:48.462Z,150008.67
2018-07-02T14:12:19.774Z,150027.47
2018-07-02T14:14:50.864Z,150046.20
2018-07-02T14:17:22.020Z,150041.20
2018-07-02T14:19:54.267Z,150037.45
2018-07-02T14:22:25.440Z,150038.70
2018-07-02T14:24:56.470Z,150029.97
2018-07-02T14:27:28.041Z,150056.25
2018-07-02T14:29:59.229Z,150063.75
2018-07-02T14:32:30.599Z,150038.70
2018-07-02T14:35:01.624Z,150023.72
2018-07-02T14:37:32.867Z,150038.70
2018-07-02T14:40:04.797Z,150048.70
2018-07-02T14:42:36.220Z,150016.22
2018-07-02T14:45:07.691Z,150006.17
2018-07-02T14:47:38.729Z,150012.47
2018-07-02T14:50:10.318Z,150053.75
2018-07-02T14:52:41.764Z,150039.95
2018-07-02T14:55:13.083Z,150006.17
2018-07-02T14:57:44.273Z,150013.72
2018-07-02T15:00:16.282Z,149998.62
2018-07-02T15:02:47.318Z,149983.63
2018-07-02T15:05:18.747Z,149921.12
2018-07-02T15:07:50.066Z,149918.63
2018-07-02T15:10:21.365Z,149967.39
2018-07-02T15:12:52.615Z,149977.39
2018-07-02T15:15:23.687Z,149993.63
2018-07-02T15:17:54.902Z,150018.72
2018-07-02T15:20:25.962Z,150016.22
2018-07-02T15:22:56.885Z,150014.97
2018-07-02T15:25:28.141Z,150013.72
2018-07-02T15:28:00.569Z,150022.47
2018-07-02T15:30:32.707Z,150028.72
2018-07-02T15:33:04.117Z,149988.64
2018-07-02T15:35:35.524Z,149968.64
2018-07-02T15:38:07.069Z,149986.13
2018-07-02T15:40:38.356Z,149964.91
2018-07-02T15:43:09.833Z,149939.86
2018-07-02T15:45:42.366Z,149926.13
2018-07-02T15:48:13.589Z,149898.59
2018-07-02T15:50:44.727Z,149861.08
2018-07-02T15:53:17.296Z,149826.06
2018-07-02T15:55:48.693Z,149789.81
2018-07-02T15:58:19.976Z,149769.83
2018-07-02T16:00:51.248Z,149709.80
2018-07-02T16:03:22.899Z,149708.55
2018-07-02T16:05:53.848Z,149717.30
2018-07-02T16:08:24.989Z,149706.06
2018-07-02T16:10:56.209Z,149657.28
2018-07-02T16:13:27.763Z,149649.78
2018-07-02T16:15:58.979Z,149627.31
2018-07-02T16:18:30.282Z,149603.56
2018-07-02T16:21:01.725Z,149576.06
2018-07-02T16:23:32.942Z,149553.59
2018-07-02T16:26:04.122Z,149552.34
2018-07-02T16:28:36.412Z,149541.11
2018-07-02T16:31:08.477Z,149539.88
2018-07-02T16:33:39.581Z,149512.38
2018-07-02T16:36:10.624Z,149536.13
2018-07-02T16:38:41.605Z,149553.59
2018-07-02T16:41:13.609Z,149558.58
2018-07-02T16:43:45.061Z,149591.08
2018-07-02T16:46:16.915Z,149586.09
2018-07-02T16:48:47.984Z,149603.56
2018-07-02T16:51:19.402Z,149587.34
2018-07-02T16:53:50.791Z,149602.31
2018-07-02T16:56:22.436Z,149582.34
2018-07-02T16:58:53.621Z,149556.09
2018-07-02T17:01:24.735Z,149571.06
2018-07-02T17:03:57.082Z,149559.83
2018-07-02T17:06:28.562Z,149519.86
2018-07-02T17:08:59.677Z,149496.16
2018-07-02T17:11:30.871Z,149481.08
2018-07-02T17:14:02.186Z,149442.41
2018-07-02T17:16:33.382Z,149431.13
2018-07-02T17:19:04.570Z,149434.88
2018-07-02T17:21:36.987Z,149414.91
2018-07-02T17:24:08.223Z,149392.47
2018-07-02T17:26:39.220Z,149406.19
2018-07-02T17:29:10.190Z,149391.22
2018-07-02T17:31:41.391Z,149376.20
2018-07-02T17:34:13.824Z,149339.98
2018-07-02T17:36:45.163Z,149336.23
2018-07-02T17:39:17.669Z,149341.28
2018-07-02T17:41:49.619Z,149320.03
2018-07-02T17:44:20.778Z,149311.30
2018-07-02T17:46:52.214Z,149301.28
2018-07-02T17:49:23.603Z,149281.28
2018-07-02T17:51:55.055Z,149266.31
2018-07-02T17:54:26.336Z,149268.81
2018-07-02T17:56:58.720Z,149288.75
2018-07-02T17:59:30.037Z,149257.59
2018-07-02T18:02:01.364Z,149258.83
2018-07-02T18:04:32.700Z,149271.30
2018-07-02T18:07:04.046Z,149278.78
2018-07-02T18:09:35.477Z,149247.61
2018-07-02T18:12:06.768Z,149263.81
2018-07-02T18:14:38.163Z,149238.83
2018-07-02T18:17:09.432Z,149226.36
2018-07-02T18:19:40.467Z,149230.11
2018-07-02T18:22:11.481Z,149228.86
2018-07-02T18:24:42.942Z,149256.34
2018-07-02T18:27:14.158Z,149252.59
2018-07-02T18:29:45.760Z,149238.83
2018-07-02T18:32:17.030Z,149232.59
2018-07-02T18:34:48.485Z,149218.88
2018-07-02T18:37:19.465Z,149198.94
2018-07-02T18:39:50.586Z,149203.92
2018-07-02T18:42:21.774Z,149202.67
2018-07-02T18:44:53.326Z,149181.44
2018-07-02T18:47:24.302Z,149221.38
2018-07-02T18:49:55.348Z,149203.92
2018-07-02T18:52:26.670Z,149221.38
2018-07-02T18:54:57.824Z,149220.13
2018-07-02T18:57:29.036Z,149215.14
2018-07-02T19:00:00.455Z,149210.16
2018-07-02T19:02:31.741Z,149227.61
2018-07-02T19:05:02.845Z,149220.13
2018-07-02T19:07:34.485Z,149238.83
2018-07-02T19:10:06.422Z,149241.33
2018-07-02T19:12:37.790Z,149217.63
2018-07-02T19:15:09.753Z,149197.64
2018-07-02T19:17:41.110Z,149185.17
2018-07-02T19:20:12.472Z,149192.66
2018-07-02T19:22:43.629Z,149191.41
2018-07-02T19:25:15.236Z,149183.94
2018-07-02T19:27:46.653Z,149172.70
2018-07-02T19:30:18.001Z,149170.22
2018-07-02T19:32:49.522Z,149163.98
2018-07-02T19:35:20.740Z,149180.19
2018-07-02T19:37:52.449Z,149167.72
2018-07-02T19:40:23.734Z,149172.70
2018-07-02T19:42:55.246Z,149188.91
2018-07-02T19:45:26.383Z,149165.23
2018-07-02T19:47:57.180Z,149206.41
2018-07-02T19:50:27.941Z,149220.13
2018-07-02T19:52:59.465Z,149213.89
2018-07-02T19:55:31.448Z,149233.84
2018-07-02T19:58:02.878Z,149222.63
2018-07-02T20:00:34.518Z,149208.91
2018-07-02T20:03:07.151Z,149178.94
2018-07-02T20:05:39.414Z,149177.69
2018-07-02T20:08:11.627Z,149176.45
2018-07-02T20:10:43.961Z,149175.20
2018-07-02T20:13:15.499Z,149152.77
2018-07-02T20:15:47.602Z,149176.45
2018-07-02T20:18:20.723Z,149195.16
2018-07-02T20:20:52.060Z,149197.64
2018-07-02T20:23:23.066Z,149175.20
2018-07-02T20:25:54.179Z,149161.48
2018-07-02T20:28:25.594Z,149142.75
2018-07-02T20:30:56.715Z,149159.00
2018-07-02T20:33:28.170Z,149145.23
2018-07-02T20:36:00.283Z,149155.25
2018-07-02T20:38:31.677Z,149183.94
2018-07-02T20:41:02.505Z,149208.91
2018-07-02T20:43:33.850Z,149225.12
2018-07-02T20:46:05.248Z,149260.08
2018-07-02T20:48:36.380Z,149256.34
2018-07-02T20:51:07.495Z,149266.31
2018-07-02T20:53:38.400Z,149285.02
2018-07-02T20:56:09.729Z,149292.50
2018-07-02T20:58:40.781Z,149303.77
2018-07-02T21:01:11.858Z,149297.53
2018-07-02T21:03:43.880Z,149318.78
2018-07-02T21:06:15.548Z,149286.25
2018-07-02T21:08:47.059Z,149293.80
2018-07-02T21:11:18.256Z,149312.55
2018-07-02T21:13:50.189Z,149318.78
2018-07-02T21:16:21.443Z,149297.53
2018-07-02T21:18:52.519Z,149287.50
2018-07-02T21:21:23.614Z,149302.52
2018-07-02T21:23:54.927Z,149295.03
2018-07-02T21:26:26.058Z,149282.52
2018-07-02T21:28:57.420Z,149271.30
2018-07-02T21:31:28.573Z,149252.59
2018-07-02T21:33:59.717Z,149235.09
2018-07-02T21:36:30.657Z,149223.87
2018-07-02T21:39:01.714Z,149200.19
2018-07-02T21:41:32.973Z,149208.91
2018-07-02T21:44:04.190Z,149225.12
2018-07-02T21:46:35.442Z,149231.34
2018-07-02T21:49:06.666Z,149233.84
2018-07-02T21:51:37.844Z,149230.11
2018-07-02T21:54:08.971Z,149227.61
2018-07-02T21:56:40.027Z,149221.38
2018-07-02T21:59:11.235Z,149215.14
2018-07-02T22:01:42.655Z,149203.92
2018-07-02T22:04:13.972Z,149196.39
2018-07-02T22:06:45.109Z,149196.39
2018-07-02T22:09:16.234Z,149187.67
2018-07-02T22:11:47.310Z,149151.52
2018-07-02T22:14:18.325Z,149141.50
2018-07-02T22:16:49.204Z,149152.77
2018-07-02T22:19:20.091Z,149139.00
2018-07-02T22:21:51.163Z,149124.05
2018-07-02T22:24:22.242Z,149126.53
2018-07-02T22:26:53.588Z,149134.02
2018-07-02T22:29:24.744Z,149116.53
2018-07-02T22:31:55.778Z,149091.55
2018-07-02T22:34:27.584Z,149089.06
2018-07-02T22:36:58.844Z,149074.09
2018-07-02T22:39:29.965Z,149064.13
2018-07-02T22:42:01.167Z,149061.64
2018-07-02T22:44:32.509Z,149049.12
2018-07-02T22:47:03.567Z,149049.12
2018-07-02T22:49:35.309Z,149061.64
2018-07-02T22:52:07.549Z,149076.59
2018-07-02T22:54:38.863Z,149085.31
2018-07-02T22:57:09.968Z,149086.56
2018-07-02T22:59:41.059Z,149091.55
2018-07-02T23:02:12.417Z,149079.09
2018-07-02T23:04:43.607Z,149087.81
2018-07-02T23:07:14.690Z,149105.31
2018-07-02T23:09:45.752Z,149109.05
2018-07-02T23:12:17.650Z,149099.03
2018-07-02T23:14:50.155Z,149077.84
2018-07-02T23:17:21.454Z,149066.62
2018-07-02T23:19:52.452Z,149075.34
2018-07-02T23:22:23.589Z,149079.09
2018-07-02T23:24:55.011Z,149074.09
2018-07-02T23:27:26.158Z,149090.30
2018-07-02T23:29:57.205Z,149072.84
2018-07-02T23:32:28.454Z,149070.36
2018-07-02T23:34:59.439Z,149075.34
2018-07-02T23:37:30.424Z,149076.59
2018-07-02T23:40:01.307Z,149070.36
2018-07-02T23:42:33.692Z,149066.62
2018-07-02T23:45:04.910Z,149039.16
2018-07-02T23:47:35.926Z,149025.45
2018-07-02T23:50:07.184Z,149026.69
2018-07-02T23:52:40.329Z,149014.23
2018-07-02T23:55:11.638Z,148983.03
2018-07-02T23:57:42.919Z,148931.91
